Time;durP1;ratioP1;P1;durP2;ratioP2;P2;SDS_P1;SDS_P2;PMS_P1;PMS_P2;Temp;Humidity;BMP_temperature;BMP_pressure;BME280_temperature;BME280_humidity;BME280_pressure;Samples;Min_cycle;Max_cycle;Signal;HPM_P1;HPM_P2
2021/01/13 13:10:14;;;;;;;0.40;0.40;;;;;;;3.53;54.15;99069.44;4875169;29;20187;-84
2021/01/13 13:12:55;;;;;;;0.40;0.40;;;;;;;3.36;53.65;99068.03;4856139;29;20199;-84
2021/01/13 13:16:12;;;;;;;0.40;0.40;;;;;;;3.42;54.13;99062.78;4903177;29;20278;-84
2021/01/13 13:19:11;;;;;;;0.40;0.40;;;;;;;3.36;53.93;99065.38;4903349;29;20254;-84
2021/01/13 13:22:24;;;;;;;0.40;0.40;;;;;;;3.43;54.08;99066.25;4903224;29;20247;-84
2021/01/13 13:25:39;;;;;;;0.40;0.40;;;;;;;3.51;53.52;99076.72;4879708;29;20185;-84
2021/01/13 13:28:25;;;;;;;0.40;0.40;;;;;;;3.67;52.98;99070.38;4895480;29;20257;-84
2021/01/13 13:31:14;;;;;;;0.30;0.30;;;;;;;3.75;53.28;99076.38;4887529;29;20475;-84
2021/01/13 13:34:12;;;;;;;0.40;0.40;;;;;;;3.41;53.07;99055.84;4902198;29;20225;-85
2021/01/13 13:37:09;;;;;;;0.40;0.40;;;;;;;3.40;53.52;99071.94;4886946;29;20281;-85
2021/01/13 13:40:21;;;;;;;0.30;0.30;;;;;;;3.35;53.93;99077.78;4863421;29;20181;-84
2021/01/13 13:43:37;;;;;;;0.40;0.40;;;;;;;3.20;53.65;99047.88;4895662;29;20197;-84
2021/01/13 13:46:20;;;;;;;0.40;0.40;;;;;;;3.26;53.60;99070.16;4902666;29;20193;-84
2021/01/13 13:49:28;;;;;;;0.40;0.40;;;;;;;3.03;54.66;99054.41;4906210;29;20261;-84
2021/01/13 13:53:00;;;;;;;0.40;0.40;;;;;;;3.10;54.18;99066.69;4889382;29;20212;-85
2021/01/13 13:55:55;;;;;;;0.40;0.40;;;;;;;2.99;53.67;99087.50;4872036;29;20273;-84
2021/01/13 13:58:40;;;;;;;0.40;0.40;;;;;;;3.02;54.26;99084.53;4886822;29;20206;-84
2021/01/13 14:01:35;;;;;;;0.37;0.37;;;;;;;3.10;55.17;99076.47;4875106;29;20179;-84
2021/01/13 14:04:40;;;;;;;0.30;0.30;;;;;;;3.10;54.87;99072.00;4872384;29;20203;-84
2021/01/13 14:07:42;;;;;;;0.30;0.30;;;;;;;3.19;55.24;99093.06;4886598;29;20251;-85
2021/01/13 14:11:00;;;;;;;0.40;0.40;;;;;;;3.01;54.43;99072.28;4866010;29;20258;-84
2021/01/13 14:13:55;;;;;;;0.30;0.30;;;;;;;2.93;55.54;99091.75;4871278;29;20213;-84
2021/01/13 14:17:39;;;;;;;0.40;0.40;;;;;;;2.96;55.45;99090.53;4877774;29;20197;-85
2021/01/13 14:20:27;;;;;;;0.40;0.40;;;;;;;3.02;55.77;99089.81;4871851;29;20206;-85
2021/01/13 14:23:39;;;;;;;0.40;0.40;;;;;;;2.96;56.49;99085.25;4887852;29;20199;-84
2021/01/13 14:26:24;;;;;;;0.40;0.40;;;;;;;2.93;55.90;99106.78;4873256;29;20278;-85
2021/01/13 14:29:47;;;;;;;0.40;0.40;;;;;;;2.68;56.94;99098.31;4887950;29;20188;-85
2021/01/13 14:32:32;;;;;;;0.40;0.40;;;;;;;2.64;57.47;99097.84;4858143;29;20171;-84
2021/01/13 14:35:35;;;;;;;0.33;0.33;;;;;;;2.54;57.95;99088.53;4888004;29;20186;-84
2021/01/13 14:38:17;;;;;;;0.40;0.40;;;;;;;2.37;59.10;99084.41;4856595;29;20188;-84
2021/01/13 14:45:42;;;;;;;0.40;0.40;;;;;;;2.55;58.23;99100.75;4887528;29;20162;-85
2021/01/13 14:48:35;;;;;;;0.40;0.40;;;;;;;2.31;58.78;99085.97;4883712;29;20222;-85
2021/01/13 14:51:25;;;;;;;0.40;0.40;;;;;;;2.19;58.91;99077.63;4870982;29;20191;-83
2021/01/13 14:54:33;;;;;;;0.40;0.40;;;;;;;2.07;59.47;99071.13;4871216;29;20191;-83
2021/01/13 14:57:27;;;;;;;0.40;0.40;;;;;;;2.03;60.70;99082.25;4887353;29;20274;-84
2021/01/13 15:00:33;;;;;;;0.40;0.40;;;;;;;1.93;60.34;99081.66;4869175;29;20194;-84
2021/01/13 15:03:25;;;;;;;0.40;0.40;;;;;;;2.03;59.66;99098.94;4858298;29;20175;-85
2021/01/13 15:06:18;;;;;;;0.40;0.40;;;;;;;1.86;60.45;99083.38;4874327;29;20180;-84
2021/01/13 15:09:09;;;;;;;0.40;0.40;;;;;;;1.74;60.63;99078.50;4851177;29;20220;-85
2021/01/13 15:13:22;;;;;;;0.40;0.40;;;;;;;1.95;60.56;99093.72;4850528;29;20179;-84
2021/01/13 15:16:19;;;;;;;0.40;0.40;;;;;;;1.85;59.64;99069.34;4850094;29;20203;-85
2021/01/13 15:19:11;;;;;;;0.40;0.40;;;;;;;1.86;59.24;99081.56;4849523;29;20164;-85
2021/01/13 15:21:56;;;;;;;0.40;0.40;;;;;;;1.89;59.51;99094.41;4848098;29;20271;-85
2021/01/13 15:24:39;;;;;;;0.40;0.40;;;;;;;1.99;58.30;99084.44;4850129;29;20188;-84
2021/01/13 15:27:49;;;;;;;0.37;0.37;;;;;;;1.79;58.68;99051.56;4849500;29;20191;-84
2021/01/13 15:30:41;;;;;;;0.33;0.33;;;;;;;1.82;59.68;99059.13;4849266;29;20600;-84
2021/01/13 15:33:41;;;;;;;0.40;0.40;;;;;;;1.85;58.73;99064.06;4849536;29;20195;-85
2021/01/13 15:37:02;;;;;;;0.40;0.40;;;;;;;1.97;58.59;99054.72;4848462;29;20214;-85
2021/01/13 15:40:16;;;;;;;0.40;0.40;;;;;;;2.00;59.04;99057.03;4849299;29;20232;-85
2021/01/13 15:46:45;;;;;;;0.40;0.40;;;;;;;1.87;58.89;99030.34;4849257;29;20255;-84
2021/01/13 15:49:34;;;;;;;0.40;0.40;;;;;;;1.88;59.52;99024.09;4835511;29;20229;-85
2021/01/13 15:56:58;;;;;;;0.40;0.40;;;;;;;1.76;58.21;99036.91;4849035;29;20246;-85
2021/01/13 15:59:48;;;;;;;0.40;0.40;;;;;;;1.77;57.17;99035.09;4824333;29;20188;-85
2021/01/13 16:03:02;;;;;;;0.40;0.40;;;;;;;1.66;57.65;99030.22;4835282;29;20176;-85
2021/01/13 16:06:18;;;;;;;0.40;0.40;;;;;;;2.15;55.22;99030.59;4847335;29;20184;-85
2021/01/13 16:09:35;;;;;;;0.30;0.30;;;;;;;2.09;54.65;99021.59;4881346;29;20286;-84
2021/01/13 16:17:16;;;;;;;0.40;0.40;;;;;;;1.93;54.15;98997.94;4848292;29;20223;-85
2021/01/13 16:20:57;;;;;;;0.40;0.40;;;;;;;2.09;53.57;98978.47;4847571;29;20261;-85
2021/01/13 16:24:44;;;;;;;0.40;0.40;;;;;;;2.01;53.57;98987.28;4848238;29;20283;-85
2021/01/13 16:27:37;;;;;;;0.40;0.40;;;;;;;1.89;53.69;98977.34;4848478;29;20204;-85
2021/01/13 16:30:31;;;;;;;0.40;0.40;;;;;;;1.78;53.33;98979.44;4840633;29;20192;-85
2021/01/13 16:33:22;;;;;;;0.30;0.30;;;;;;;1.89;53.47;98990.56;4848201;29;20199;-85
2021/01/13 16:36:49;;;;;;;0.30;0.30;;;;;;;1.95;53.42;98974.84;4847867;29;20215;-85
2021/01/13 16:39:46;;;;;;;0.40;0.40;;;;;;;1.94;53.84;98981.09;4833356;29;20194;-86
2021/01/13 16:42:45;;;;;;;0.40;0.40;;;;;;;1.77;54.01;98977.00;4847715;29;20195;-86
2021/01/13 16:45:58;;;;;;;0.40;0.40;;;;;;;1.64;53.56;98972.28;4832070;29;20175;-85
2021/01/13 16:49:15;;;;;;;0.40;0.40;;;;;;;1.71;54.07;98978.53;4848657;29;20210;-85
2021/01/13 16:52:05;;;;;;;0.50;0.50;;;;;;;1.81;53.30;98964.25;4847709;29;20175;-85
2021/01/13 16:55:34;;;;;;;0.40;0.40;;;;;;;1.95;53.30;98974.00;4847930;29;20226;-85
2021/01/13 16:58:29;;;;;;;0.40;0.40;;;;;;;1.84;53.84;98955.94;4834354;29;20200;-85
2021/01/13 17:01:16;;;;;;;0.40;0.40;;;;;;;1.95;53.27;98960.78;4832473;29;20219;-85
2021/01/13 17:04:12;;;;;;;0.40;0.40;;;;;;;1.87;52.34;98945.03;4832545;29;20190;-85
2021/01/13 17:07:29;;;;;;;0.40;0.40;;;;;;;2.04;52.70;98976.38;4847413;29;20180;-85
2021/01/13 17:11:15;;;;;;;0.40;0.40;;;;;;;2.22;52.67;98970.75;4885004;29;20218;-85
2021/01/13 17:14:30;;;;;;;0.40;0.40;;;;;;;1.92;52.46;98934.72;4884886;29;20230;-85
2021/01/13 17:17:31;;;;;;;0.40;0.40;;;;;;;2.04;52.72;98939.41;4837097;29;20218;-85
2021/01/13 17:20:20;;;;;;;0.40;0.40;;;;;;;1.96;53.35;98952.66;4865813;29;20203;-84
2021/01/13 17:23:10;;;;;;;0.40;0.40;;;;;;;1.97;52.73;98964.06;4858078;29;20188;-85
2021/01/13 17:26:23;;;;;;;0.40;0.40;;;;;;;2.17;52.30;98976.56;4865957;29;20202;-85
2021/01/13 17:29:26;;;;;;;0.40;0.40;;;;;;;1.93;52.93;98960.16;4864307;29;20187;-85
2021/01/13 17:32:40;;;;;;;0.40;0.40;;;;;;;2.00;52.94;98985.69;4862777;29;20279;-85
2021/01/13 17:35:53;;;;;;;0.40;0.40;;;;;;;2.10;51.72;98975.63;4865064;29;20208;-85
2021/01/13 17:39:31;;;;;;;0.40;0.40;;;;;;;1.94;52.31;98961.78;4861423;29;20240;-85
2021/01/13 17:42:49;;;;;;;0.40;0.40;;;;;;;2.05;52.74;98964.78;4863672;29;20190;-84
2021/01/13 17:45:49;;;;;;;0.30;0.30;;;;;;;2.28;52.30;98954.16;4837387;29;20223;-85
2021/01/13 17:48:37;;;;;;;0.40;0.40;;;;;;;2.20;51.47;98968.28;4854191;29;20184;-85
2021/01/13 17:51:38;;;;;;;0.37;0.37;;;;;;;2.15;51.82;98951.31;4852980;29;20218;-83
2021/01/13 17:54:44;;;;;;;0.33;0.33;;;;;;;2.09;52.02;98952.06;4863127;29;20214;-85
2021/01/13 17:58:27;;;;;;;0.40;0.40;;;;;;;2.08;51.37;98940.66;4865169;29;20239;-85
2021/01/13 18:02:29;;;;;;;0.40;0.40;;;;;;;2.29;52.00;98947.06;4810906;29;20218;-84
2021/01/13 18:05:35;;;;;;;0.40;0.40;;;;;;;2.24;52.54;98942.28;4810940;29;20211;-85
2021/01/13 18:08:37;;;;;;;0.40;0.40;;;;;;;2.14;52.98;98949.69;4826181;29;20396;-85
2021/01/13 18:11:50;;;;;;;0.40;0.40;;;;;;;2.11;52.62;98945.56;4811006;29;20217;-85
2021/01/13 18:15:36;;;;;;;0.40;0.40;;;;;;;2.11;52.32;98931.53;4810654;29;20213;-85
2021/01/13 18:19:13;;;;;;;0.40;0.40;;;;;;;2.24;53.51;98930.91;4780933;29;20233;-85
2021/01/13 18:22:43;;;;;;;0.40;0.40;;;;;;;2.14;53.50;98936.47;4819348;29;20562;-85
2021/01/13 18:29:35;;;;;;;0.40;0.40;;;;;;;2.00;55.61;98943.41;4813023;29;20200;-85
2021/01/13 18:33:24;;;;;;;0.40;0.40;;;;;;;2.19;56.65;98940.19;4804355;29;20181;-86
2021/01/13 18:36:17;;;;;;;0.33;0.33;;;;;;;2.11;57.84;98921.78;4798466;29;20228;-84
2021/01/13 18:39:13;;;;;;;0.40;0.40;;;;;;;2.23;58.16;98924.81;4814444;29;20217;-85
2021/01/13 18:42:29;;;;;;;0.40;0.40;;;;;;;2.22;58.54;98939.03;4813237;29;20220;-84
2021/01/13 18:45:34;;;;;;;0.40;0.40;;;;;;;2.01;59.31;98921.25;4862882;29;20245;-85
2021/01/13 18:48:56;;;;;;;0.40;0.40;;;;;;;1.97;57.96;98914.69;4875983;29;20188;-85
2021/01/13 18:51:49;;;;;;;0.40;0.40;;;;;;;1.97;58.06;98901.47;4887728;29;20177;-85
2021/01/13 18:55:30;;;;;;;0.40;0.40;;;;;;;1.88;58.59;98907.84;4856572;29;20218;-85
2021/01/13 18:58:44;;;;;;;0.40;0.40;;;;;;;1.72;58.25;98894.84;4868180;29;20211;-85
2021/01/13 19:02:13;;;;;;;0.40;0.40;;;;;;;1.88;57.84;98885.91;4862726;29;20194;-85
2021/01/13 19:06:15;;;;;;;0.30;0.30;;;;;;;1.89;57.22;98887.53;4780622;29;20205;-86
2021/01/13 19:10:12;;;;;;;0.40;0.40;;;;;;;1.86;56.96;98877.34;4777313;29;20306;-84
2021/01/13 19:13:05;;;;;;;0.40;0.40;;;;;;;1.88;57.37;98876.16;4777633;29;20214;-85
2021/01/13 19:15:58;;;;;;;0.40;0.40;;;;;;;1.91;56.88;98873.16;4777425;29;20218;-85
2021/01/13 19:19:16;;;;;;;0.30;0.30;;;;;;;1.89;56.37;98877.81;4789385;29;20197;-84
2021/01/13 19:22:28;;;;;;;0.40;0.40;;;;;;;1.77;56.72;98858.94;4776767;29;20199;-84
2021/01/13 19:26:00;;;;;;;0.40;0.40;;;;;;;2.10;55.83;98895.56;4776574;29;20234;-85
2021/01/13 19:29:27;;;;;;;0.40;0.40;;;;;;;2.00;56.11;98871.25;4786774;29;20206;-85
2021/01/13 19:41:53;;;;;;;0.40;0.40;;;;;;;1.88;55.69;98876.16;4868308;29;20178;-85
2021/01/13 19:44:53;;;;;;;0.40;0.40;;;;;;;1.88;55.19;98865.59;4865009;29;20207;-85
2021/01/13 19:48:19;;;;;;;0.40;0.40;;;;;;;1.80;56.31;98862.22;4867741;29;20176;-84
2021/01/13 19:51:13;;;;;;;0.33;0.33;;;;;;;1.83;55.50;98851.28;4826030;29;20187;-84
2021/01/13 20:01:30;;;;;;;0.40;0.40;;;;;;;1.94;55.09;98837.63;4852284;29;20184;-85
2021/01/13 20:04:34;;;;;;;0.40;0.40;;;;;;;2.02;54.68;98842.81;4854457;29;20195;-85
2021/01/13 20:07:53;;;;;;;0.40;0.40;;;;;;;1.86;54.87;98812.13;4854538;29;20271;-85
2021/01/13 20:25:03;;;;;;;0.40;0.40;;;;;;;2.05;54.33;98818.69;4795254;29;20246;-85
2021/01/13 20:41:46;;;;;;;0.33;0.33;;;;;;;1.85;55.97;98772.69;4867822;29;20250;-86
2021/01/13 20:58:33;;;;;;;0.40;0.40;;;;;;;1.87;54.87;98775.97;4811684;29;20217;-86
2021/01/13 21:09:50;;;;;;;0.40;0.40;;;;;;;2.03;53.74;98751.97;4758424;30;20191;-86
2021/01/13 21:13:28;;;;;;;0.40;0.40;;;;;;;2.02;54.09;98745.03;4758466;30;20183;-86
2021/01/13 21:21:24;;;;;;;0.40;0.40;;;;;;;2.04;52.03;98735.94;4705094;30;20262;-86
2021/01/13 21:33:55;;;;;;;0.37;0.37;;;;;;;2.16;50.75;98728.34;4740829;30;20175;-86
2021/01/13 21:37:59;;;;;;;0.40;0.40;;;;;;;2.14;51.02;98723.25;4792544;29;20209;-87
2021/01/13 21:42:20;;;;;;;0.40;0.40;;;;;;;2.16;51.65;98723.88;4793657;29;20201;-86
2021/01/13 21:58:55;;;;;;;0.40;0.40;;;;;;;2.02;50.26;98674.53;4750340;30;20281;-87
2021/01/13 22:02:51;;;;;;;0.30;0.30;;;;;;;2.00;51.24;98678.38;4743788;30;20203;-85
2021/01/13 22:14:57;;;;;;;0.40;0.40;;;;;;;1.69;50.49;98646.94;4724679;30;20247;-85
2021/01/13 23:02:26;;;;;;;0.40;0.40;;;;;;;1.87;52.33;98589.25;4844537;29;20159;-86
2021/01/13 23:05:57;;;;;;;0.40;0.40;;;;;;;1.70;53.58;98579.94;4849985;29;20191;-85
2021/01/13 23:14:18;;;;;;;0.40;0.40;;;;;;;1.84;53.79;98557.94;4837174;29;20188;-87
2021/01/13 23:22:51;;;;;;;0.40;0.40;;;;;;;1.99;53.46;98532.25;4849936;29;20175;-87
2021/01/13 23:47:31;;;;;;;0.37;0.37;;;;;;;2.04;55.42;98492.06;4789396;30;20217;-86
